Time;durP1;ratioP1;P1;durP2;ratioP2;P2;SDS_P1;SDS_P2;PMS_P1;PMS_P2;Temp;Humidity;BMP_temperature;BMP_pressure;BME280_temperature;BME280_humidity;BME280_pressure;Samples;Min_cycle;Max_cycle;Signal;HPM_P1;HPM_P2
2022/01/04 00:00:53;;;;;;;32.20;17.90;;;;;;;;;;5130238;27;20023;-74
2022/01/04 00:03:20;;;;;;;33.70;18.38;;;;;;;;;;5130330;27;20018;-74
2022/01/04 00:05:47;;;;;;;51.50;21.25;;;;;;;;;;5112974;27;20042;-74
2022/01/04 00:08:13;;;;;;;30.15;16.88;;;;;;;;;;5133161;27;20027;-74
2022/01/04 00:10:40;;;;;;;39.00;18.55;;;;;;;;;;5130082;27;20031;-73
2022/01/04 00:13:24;;;;;;;28.65;16.02;;;;;;;;;;5130355;27;20026;-73
2022/01/04 00:15:55;;;;;;;34.50;17.48;;;;;;;;;;5111844;27;20038;-74
2022/01/04 00:18:22;;;;;;;26.55;15.13;;;;;;;;;;5130367;27;20019;-74
2022/01/04 00:20:48;;;;;;;26.40;14.18;;;;;;;;;;5131430;27;20023;-74
2022/01/04 00:23:15;;;;;;;33.08;14.35;;;;;;;;;;5133492;27;20026;-73
2022/01/04 00:25:42;;;;;;;27.55;14.73;;;;;;;;;;5129928;27;20023;-74
2022/01/04 00:28:09;;;;;;;34.60;16.85;;;;;;;;;;5129578;27;20030;-74
2022/01/04 00:30:36;;;;;;;33.47;16.50;;;;;;;;;;5129320;27;20031;-73
2022/01/04 00:33:03;;;;;;;30.60;15.60;;;;;;;;;;5130115;27;20020;-74
2022/01/04 00:35:30;;;;;;;46.42;15.88;;;;;;;;;;5132032;27;20031;-73
2022/01/04 00:37:57;;;;;;;29.13;15.38;;;;;;;;;;5130681;27;20023;-73
2022/01/04 00:40:24;;;;;;;26.10;15.38;;;;;;;;;;5129522;27;20405;-74
2022/01/04 00:42:51;;;;;;;25.55;14.25;;;;;;;;;;5110624;27;20430;-74
2022/01/04 00:45:18;;;;;;;23.65;13.82;;;;;;;;;;5129689;27;20489;-74
2022/01/04 00:50:17;;;;;;;23.67;12.30;;;;;;;;;;5132765;27;20035;-74
2022/01/04 00:52:43;;;;;;;23.17;11.98;;;;;;;;;;5129517;27;20060;-74
2022/01/04 00:55:10;;;;;;;39.97;12.05;;;;;;;;;;5129376;27;20500;-74
2022/01/04 00:57:36;;;;;;;30.30;12.88;;;;;;;;;;5129033;27;20026;-74
2022/01/04 01:00:04;;;;;;;52.40;14.30;;;;;;;;;;5130958;27;20025;-74
2022/01/04 01:02:30;;;;;;;28.58;13.07;;;;;;;;;;5096473;27;20454;-74
2022/01/04 01:04:57;;;;;;;40.22;14.38;;;;;;;;;;5130418;27;20027;-73
2022/01/04 01:07:23;;;;;;;99.50;17.00;;;;;;;;;;5129120;27;20076;-74
2022/01/04 01:12:25;;;;;;;60.42;16.95;;;;;;;;;;5128891;27;20020;-74
2022/01/04 01:14:51;;;;;;;113.45;19.90;;;;;;;;;;5129642;27;20023;-74
2022/01/04 01:17:18;;;;;;;153.85;20.88;;;;;;;;;;5132698;27;20019;-73
2022/01/04 01:19:44;;;;;;;86.40;19.75;;;;;;;;;;5110488;28;20015;-74
2022/01/04 01:22:10;;;;;;;54.47;18.20;;;;;;;;;;5129049;28;20031;-73
2022/01/04 01:24:37;;;;;;;37.55;18.55;;;;;;;;;;5128877;28;20015;-74
2022/01/04 01:27:03;;;;;;;57.97;19.17;;;;;;;;;;5129061;28;20027;-74
2022/01/04 01:29:30;;;;;;;54.33;20.45;;;;;;;;;;5131474;28;20031;-73
2022/01/04 01:31:56;;;;;;;66.60;19.63;;;;;;;;;;5130218;28;20489;-74
2022/01/04 01:34:23;;;;;;;50.33;20.90;;;;;;;;;;5129418;28;20021;-74
2022/01/04 01:36:50;;;;;;;58.42;18.70;;;;;;;;;;5128588;28;20405;-73
2022/01/04 01:39:16;;;;;;;44.78;18.80;;;;;;;;;;5130311;28;20019;-73
2022/01/04 01:41:43;;;;;;;61.53;19.98;;;;;;;;;;5130197;28;20034;-74
2022/01/04 01:44:09;;;;;;;39.40;19.33;;;;;;;;;;5133689;27;20033;-74
2022/01/04 01:46:36;;;;;;;53.42;16.92;;;;;;;;;;5132817;27;20043;-74
2022/01/04 01:49:02;;;;;;;53.92;17.70;;;;;;;;;;5132926;27;20015;-74
2022/01/04 01:51:30;;;;;;;32.92;17.35;;;;;;;;;;5132735;27;20015;-74
2022/01/04 01:53:57;;;;;;;41.60;14.10;;;;;;;;;;5132851;27;20032;-74
2022/01/04 01:56:23;;;;;;;31.58;12.65;;;;;;;;;;5135649;27;20370;-73
2022/01/04 01:58:50;;;;;;;40.72;15.27;;;;;;;;;;5133279;27;20029;-74
2022/01/04 02:01:16;;;;;;;43.83;13.13;;;;;;;;;;5132376;27;20025;-74
2022/01/04 02:03:43;;;;;;;44.80;13.55;;;;;;;;;;5132562;27;20023;-74
2022/01/04 02:06:10;;;;;;;37.63;15.18;;;;;;;;;;5132790;27;20018;-74
2022/01/04 02:08:36;;;;;;;30.60;14.18;;;;;;;;;;5134550;27;20058;-73
2022/01/04 02:11:03;;;;;;;78.18;14.50;;;;;;;;;;5133613;27;20046;-73
2022/01/04 02:13:29;;;;;;;43.85;10.05;;;;;;;;;;5132388;27;20421;-73
2022/01/04 02:15:56;;;;;;;54.45;11.50;;;;;;;;;;5132243;27;20023;-75
2022/01/04 02:18:23;;;;;;;51.78;11.55;;;;;;;;;;5113933;28;20397;-74
2022/01/04 02:20:49;;;;;;;45.15;12.80;;;;;;;;;;5132766;27;20030;-73
2022/01/04 02:23:16;;;;;;;31.05;11.18;;;;;;;;;;5135699;27;20033;-74
2022/01/04 02:25:42;;;;;;;32.78;10.90;;;;;;;;;;5113693;27;20027;-73
2022/01/04 02:28:09;;;;;;;45.30;11.05;;;;;;;;;;5132144;27;20475;-73
2022/01/04 02:30:35;;;;;;;68.15;12.02;;;;;;;;;;5131967;27;20443;-74
2022/01/04 02:33:01;;;;;;;31.98;11.95;;;;;;;;;;5132344;27;20046;-74
2022/01/04 02:35:32;;;;;;;32.33;11.15;;;;;;;;;;5134437;27;20027;-74
2022/01/04 02:37:59;;;;;;;25.45;11.60;;;;;;;;;;5132930;27;20108;-73
2022/01/04 02:40:26;;;;;;;37.47;10.57;;;;;;;;;;5131666;27;20027;-73
2022/01/04 02:42:53;;;;;;;45.95;10.35;;;;;;;;;;5131883;27;20384;-74
2022/01/04 02:45:19;;;;;;;27.80;10.07;;;;;;;;;;5132022;27;20027;-74
2022/01/04 02:47:46;;;;;;;37.60;9.50;;;;;;;;;;5129290;27;20028;-73
2022/01/04 02:50:12;;;;;;;26.35;9.60;;;;;;;;;;5118929;27;20035;-74
2022/01/04 02:52:39;;;;;;;29.20;9.15;;;;;;;;;;5115838;27;20020;-74
2022/01/04 02:55:06;;;;;;;16.17;8.88;;;;;;;;;;5115409;27;20381;-74
2022/01/04 02:57:33;;;;;;;28.20;8.98;;;;;;;;;;5117317;27;20377;-73
2022/01/04 02:59:59;;;;;;;15.60;8.68;;;;;;;;;;5112254;27;20032;-74
2022/01/04 03:02:26;;;;;;;35.15;8.98;;;;;;;;;;5117137;27;20024;-73
2022/01/04 03:04:53;;;;;;;25.77;9.88;;;;;;;;;;5100032;28;20035;-74
2022/01/04 03:07:19;;;;;;;29.42;10.00;;;;;;;;;;5115485;27;20076;-74
2022/01/04 03:09:45;;;;;;;30.48;10.77;;;;;;;;;;5115521;27;20033;-74
2022/01/04 03:12:12;;;;;;;46.75;10.30;;;;;;;;;;5114145;27;20031;-73
2022/01/04 03:14:38;;;;;;;36.88;10.73;;;;;;;;;;5114166;27;20032;-74
2022/01/04 03:17:05;;;;;;;30.50;10.73;;;;;;;;;;5117400;27;20504;-74
2022/01/04 03:19:31;;;;;;;28.42;10.73;;;;;;;;;;5115590;27;20030;-74
2022/01/04 03:21:57;;;;;;;70.80;10.02;;;;;;;;;;5115640;27;20023;-74
2022/01/04 03:24:25;;;;;;;55.30;11.98;;;;;;;;;;5114986;27;20049;-74
2022/01/04 03:26:51;;;;;;;42.97;9.05;;;;;;;;;;5111168;28;20023;-73
2022/01/04 03:29:18;;;;;;;46.35;7.70;;;;;;;;;;5118585;27;20015;-74
2022/01/04 03:31:44;;;;;;;34.08;7.07;;;;;;;;;;5115383;27;20031;-74
2022/01/04 03:34:11;;;;;;;19.15;7.13;;;;;;;;;;5096998;28;20027;-73
2022/01/04 03:36:38;;;;;;;21.38;6.70;;;;;;;;;;5116070;27;20400;-74
2022/01/04 03:39:06;;;;;;;74.07;6.18;;;;;;;;;;5112784;27;20026;-73
2022/01/04 03:41:37;;;;;;;33.22;5.93;;;;;;;;;;5115793;27;20026;-74
2022/01/04 03:44:04;;;;;;;36.80;6.13;;;;;;;;;;5116905;27;20031;-74
2022/01/04 03:46:31;;;;;;;17.98;7.13;;;;;;;;;;5105662;27;20043;-74
2022/01/04 03:48:57;;;;;;;13.48;5.35;;;;;;;;;;5130686;27;20504;-73
2022/01/04 03:51:24;;;;;;;29.42;7.20;;;;;;;;;;5130250;27;20023;-74
2022/01/04 03:53:50;;;;;;;24.45;7.35;;;;;;;;;;5131138;27;20019;-73
2022/01/04 03:56:17;;;;;;;24.98;7.25;;;;;;;;;;5134413;27;20033;-74
2022/01/04 03:58:43;;;;;;;16.27;6.70;;;;;;;;;;5130179;27;20034;-73
2022/01/04 04:01:09;;;;;;;15.02;6.05;;;;;;;;;;5111982;27;20498;-73
2022/01/04 04:03:36;;;;;;;25.60;6.20;;;;;;;;;;5130287;27;20358;-74
2022/01/04 04:06:02;;;;;;;12.05;5.40;;;;;;;;;;5128851;27;20016;-74
2022/01/04 04:08:29;;;;;;;25.02;6.40;;;;;;;;;;5114461;27;20038;-74
2022/01/04 04:10:55;;;;;;;26.67;6.30;;;;;;;;;;5131023;27;20053;-74
2022/01/04 04:13:22;;;;;;;17.08;6.32;;;;;;;;;;5129571;27;20019;-74
2022/01/04 04:15:48;;;;;;;16.05;6.78;;;;;;;;;;5131190;27;20033;-74
2022/01/04 04:18:16;;;;;;;20.85;7.07;;;;;;;;;;5129873;27;20029;-74
2022/01/04 04:20:43;;;;;;;16.25;5.80;;;;;;;;;;5130807;27;20037;-73
2022/01/04 04:23:10;;;;;;;18.98;6.60;;;;;;;;;;5132321;27;20023;-74
2022/01/04 04:25:37;;;;;;;15.95;6.05;;;;;;;;;;5129536;27;20030;-74
2022/01/04 04:28:03;;;;;;;19.27;5.80;;;;;;;;;;5129629;27;20027;-73
2022/01/04 04:30:30;;;;;;;12.13;5.85;;;;;;;;;;5129315;27;20061;-73
2022/01/04 04:32:56;;;;;;;27.92;4.60;;;;;;;;;;5130051;27;20015;-74
2022/01/04 04:35:23;;;;;;;15.77;5.03;;;;;;;;;;5132167;27;20046;-74
2022/01/04 04:37:49;;;;;;;34.78;6.40;;;;;;;;;;5130156;27;20031;-74
2022/01/04 04:40:16;;;;;;;26.90;6.35;;;;;;;;;;5129653;27;20026;-73
2022/01/04 04:42:42;;;;;;;26.58;6.22;;;;;;;;;;5129413;27;20011;-73
2022/01/04 04:45:09;;;;;;;15.50;5.63;;;;;;;;;;5129602;27;20024;-73
2022/01/04 04:47:36;;;;;;;25.42;4.78;;;;;;;;;;5131706;27;20030;-73
2022/01/04 04:50:02;;;;;;;16.98;5.00;;;;;;;;;;5130349;27;20039;-74
2022/01/04 04:52:29;;;;;;;29.92;5.40;;;;;;;;;;5111048;27;20023;-73
2022/01/04 04:54:55;;;;;;;9.38;4.60;;;;;;;;;;5130597;27;20023;-73
2022/01/04 04:57:22;;;;;;;9.55;4.60;;;;;;;;;;5129511;27;20031;-74
2022/01/04 04:59:48;;;;;;;18.80;4.60;;;;;;;;;;5130026;27;20037;-73
2022/01/04 05:02:14;;;;;;;20.77;4.55;;;;;;;;;;5132341;27;20039;-74
2022/01/04 05:04:41;;;;;;;20.70;4.68;;;;;;;;;;5128558;27;20020;-73
2022/01/04 05:07:07;;;;;;;21.48;4.00;;;;;;;;;;5128881;27;20027;-73
2022/01/04 05:09:33;;;;;;;10.30;3.67;;;;;;;;;;5128934;27;20031;-73
2022/01/04 05:12:00;;;;;;;22.15;4.32;;;;;;;;;;5129255;27;20031;-73
2022/01/04 05:14:26;;;;;;;12.43;3.75;;;;;;;;;;5131889;27;20034;-73
2022/01/04 05:16:52;;;;;;;18.80;3.95;;;;;;;;;;5130134;27;20038;-73
2022/01/04 05:19:19;;;;;;;6.85;4.05;;;;;;;;;;5128650;27;20019;-74
2022/01/04 05:21:45;;;;;;;17.00;4.07;;;;;;;;;;5129009;27;20022;-74
2022/01/04 05:24:12;;;;;;;14.15;4.18;;;;;;;;;;5129035;28;20393;-73
2022/01/04 05:26:38;;;;;;;5.57;4.15;;;;;;;;;;5130782;28;20027;-73
2022/01/04 05:29:05;;;;;;;10.10;3.83;;;;;;;;;;5130690;28;20034;-73
2022/01/04 05:31:31;;;;;;;15.35;3.72;;;;;;;;;;5128651;28;20549;-73
2022/01/04 05:33:58;;;;;;;84.72;4.82;;;;;;;;;;5111703;28;20015;-74
2022/01/04 05:36:24;;;;;;;50.17;4.18;;;;;;;;;;5129294;28;20030;-73
2022/01/04 05:38:50;;;;;;;51.67;4.55;;;;;;;;;;5129626;28;20072;-73
2022/01/04 05:41:17;;;;;;;14.80;3.40;;;;;;;;;;5132259;28;20446;-72
2022/01/04 05:43:43;;;;;;;17.30;3.70;;;;;;;;;;5128623;28;20297;-73
2022/01/04 05:46:09;;;;;;;29.45;4.10;;;;;;;;;;5128396;28;20039;-73
2022/01/04 05:48:36;;;;;;;30.10;4.63;;;;;;;;;;5128507;28;20015;-74
2022/01/04 05:51:02;;;;;;;23.52;4.35;;;;;;;;;;5128671;28;20075;-73
2022/01/04 05:53:30;;;;;;;40.92;5.13;;;;;;;;;;5131117;28;20037;-74
2022/01/04 05:55:56;;;;;;;18.58;5.43;;;;;;;;;;5129880;28;20020;-73
2022/01/04 05:58:22;;;;;;;32.53;5.50;;;;;;;;;;5128443;28;20489;-74
2022/01/04 06:00:49;;;;;;;42.42;5.68;;;;;;;;;;5128663;28;20404;-74
2022/01/04 06:03:16;;;;;;;25.98;4.80;;;;;;;;;;5128231;28;20023;-74
2022/01/04 06:05:42;;;;;;;15.13;5.10;;;;;;;;;;5130046;28;20080;-74
2022/01/04 06:08:09;;;;;;;21.38;5.40;;;;;;;;;;5131030;28;20022;-73
2022/01/04 06:10:39;;;;;;;38.20;5.90;;;;;;;;;;5128356;28;20041;-73
2022/01/04 06:15:32;;;;;;;31.17;4.38;;;;;;;;;;5128635;28;20025;-73
2022/01/04 06:17:59;;;;;;;58.00;5.72;;;;;;;;;;5128379;28;20023;-74
2022/01/04 06:20:27;;;;;;;31.83;5.53;;;;;;;;;;5113349;28;20483;-74
2022/01/04 06:22:54;;;;;;;14.98;4.90;;;;;;;;;;5129401;28;20023;-73
2022/01/04 06:25:21;;;;;;;16.95;5.25;;;;;;;;;;5128282;28;20029;-74
2022/01/04 06:27:49;;;;;;;22.52;5.10;;;;;;;;;;5128337;28;20031;-73
2022/01/04 06:30:19;;;;;;;13.00;4.63;;;;;;;;;;5131239;27;20019;-73
2022/01/04 06:32:46;;;;;;;22.33;4.95;;;;;;;;;;5132841;27;20482;-73
2022/01/04 06:35:13;;;;;;;22.60;5.07;;;;;;;;;;5116686;27;20104;-74
2022/01/04 06:37:41;;;;;;;13.88;4.68;;;;;;;;;;5132000;27;20023;-74
2022/01/04 06:40:08;;;;;;;12.75;4.50;;;;;;;;;;5131900;27;20023;-73
2022/01/04 06:42:34;;;;;;;12.43;4.93;;;;;;;;;;5131763;27;20044;-74
2022/01/04 06:45:01;;;;;;;19.05;4.47;;;;;;;;;;5132171;27;20030;-73
2022/01/04 06:47:27;;;;;;;18.77;4.10;;;;;;;;;;5115823;27;20525;-74
2022/01/04 06:49:54;;;;;;;17.33;3.80;;;;;;;;;;5132956;27;20035;-73
2022/01/04 06:52:21;;;;;;;28.85;4.18;;;;;;;;;;5132783;27;20033;-73
2022/01/04 06:54:47;;;;;;;16.17;4.45;;;;;;;;;;5131612;27;20023;-74
2022/01/04 06:57:13;;;;;;;16.75;4.25;;;;;;;;;;5133022;27;20023;-73
2022/01/04 06:59:40;;;;;;;37.03;5.38;;;;;;;;;;5133127;27;20023;-74
2022/01/04 07:02:06;;;;;;;30.95;6.10;;;;;;;;;;5131412;27;20032;-74
2022/01/04 07:04:33;;;;;;;25.17;7.05;;;;;;;;;;5130852;27;20030;-73
2022/01/04 07:07:00;;;;;;;31.02;6.00;;;;;;;;;;5130864;27;20019;-73
2022/01/04 07:09:26;;;;;;;7.70;4.20;;;;;;;;;;5128158;27;20037;-74
2022/01/04 07:11:54;;;;;;;7.28;3.47;;;;;;;;;;5130568;27;20025;-74
2022/01/04 07:14:20;;;;;;;8.82;3.78;;;;;;;;;;5132804;27;20023;-74
2022/01/04 07:16:47;;;;;;;47.00;4.07;;;;;;;;;;5130577;27;20034;-73
2022/01/04 07:19:15;;;;;;;10.25;4.78;;;;;;;;;;5130617;27;20034;-73
2022/01/04 07:21:41;;;;;;;14.57;3.95;;;;;;;;;;5130931;27;20503;-74
2022/01/04 07:24:08;;;;;;;13.75;4.20;;;;;;;;;;5130547;27;20030;-74
2022/01/04 07:26:34;;;;;;;11.38;4.32;;;;;;;;;;5132542;27;20026;-73
2022/01/04 07:29:00;;;;;;;11.43;3.92;;;;;;;;;;5126501;27;20031;-74
2022/01/04 07:31:27;;;;;;;119.80;42.72;;;;;;;;;;5128400;27;20046;-73
2022/01/04 07:33:53;;;;;;;68.28;9.57;;;;;;;;;;5129889;27;20020;-73
2022/01/04 07:36:20;;;;;;;27.05;9.55;;;;;;;;;;5130080;27;20071;-73
2022/01/04 07:38:46;;;;;;;23.23;6.93;;;;;;;;;;5132611;27;20048;-73
2022/01/04 07:41:13;;;;;;;16.88;6.65;;;;;;;;;;5131354;27;20029;-73
2022/01/04 07:43:39;;;;;;;22.45;5.85;;;;;;;;;;5129289;27;20384;-74
2022/01/04 07:46:06;;;;;;;17.60;5.60;;;;;;;;;;5129544;27;20618;-74
2022/01/04 07:48:32;;;;;;;77.70;15.68;;;;;;;;;;5128855;27;20015;-73
2022/01/04 07:50:59;;;;;;;51.15;12.35;;;;;;;;;;5130063;27;20374;-74
2022/01/04 07:53:26;;;;;;;36.45;9.00;;;;;;;;;;5123870;27;20030;-74
2022/01/04 07:55:53;;;;;;;22.52;5.30;;;;;;;;;;5130127;27;20026;-74
2022/01/04 07:58:19;;;;;;;49.60;6.65;;;;;;;;;;5126887;27;20031;-73
2022/01/04 08:00:46;;;;;;;33.33;6.20;;;;;;;;;;5116235;27;20393;-74
2022/01/04 08:03:12;;;;;;;31.33;6.10;;;;;;;;;;5114871;27;20032;-74
2022/01/04 08:05:38;;;;;;;14.05;6.10;;;;;;;;;;5119419;27;20030;-73
2022/01/04 08:08:05;;;;;;;10.30;5.75;;;;;;;;;;5131594;27;20493;-73
2022/01/04 08:10:31;;;;;;;10.25;5.20;;;;;;;;;;5129431;27;20031;-74
2022/01/04 08:12:57;;;;;;;9.80;5.03;;;;;;;;;;5122530;27;20020;-73
2022/01/04 08:15:25;;;;;;;19.20;5.38;;;;;;;;;;5121847;27;20023;-74
2022/01/04 08:17:52;;;;;;;24.73;5.82;;;;;;;;;;5123306;27;20453;-74
2022/01/04 08:20:18;;;;;;;29.95;5.32;;;;;;;;;;5108092;27;20028;-74
2022/01/04 08:22:45;;;;;;;37.45;5.68;;;;;;;;;;5128072;27;20120;-74
2022/01/04 08:25:11;;;;;;;30.45;5.47;;;;;;;;;;5127025;27;20063;-73
2022/01/04 08:27:39;;;;;;;17.60;5.32;;;;;;;;;;5128522;27;20015;-74
2022/01/04 08:30:07;;;;;;;27.60;6.05;;;;;;;;;;5128011;27;20059;-73
2022/01/04 08:32:33;;;;;;;19.48;6.10;;;;;;;;;;5130578;27;20019;-74
2022/01/04 08:34:59;;;;;;;37.97;6.38;;;;;;;;;;5114988;27;20035;-73
2022/01/04 08:37:26;;;;;;;16.02;6.13;;;;;;;;;;5122752;27;20397;-74
2022/01/04 08:39:53;;;;;;;12.23;6.18;;;;;;;;;;5126267;27;20044;-74
2022/01/04 08:42:22;;;;;;;17.95;6.75;;;;;;;;;;5126860;27;20022;-74
2022/01/04 08:44:51;;;;;;;17.38;8.18;;;;;;;;;;5128973;27;20116;-73
2022/01/04 08:47:18;;;;;;;16.10;7.85;;;;;;;;;;5133486;27;20043;-74
2022/01/04 08:49:44;;;;;;;12.68;7.43;;;;;;;;;;5128068;27;20065;-74
2022/01/04 08:52:11;;;;;;;16.23;6.63;;;;;;;;;;5127101;27;20392;-74
2022/01/04 08:54:37;;;;;;;18.05;6.30;;;;;;;;;;5127555;27;20023;-74
2022/01/04 08:57:04;;;;;;;36.35;7.97;;;;;;;;;;5127748;27;20028;-74
2022/01/04 08:59:32;;;;;;;25.33;8.07;;;;;;;;;;5130171;27;20513;-75
2022/01/04 09:01:58;;;;;;;16.60;5.43;;;;;;;;;;5127542;27;20011;-73
2022/01/04 09:04:25;;;;;;;31.95;6.65;;;;;;;;;;5107063;27;20072;-74
2022/01/04 09:06:51;;;;;;;16.30;6.60;;;;;;;;;;5123787;27;20020;-74
2022/01/04 09:09:18;;;;;;;13.30;6.72;;;;;;;;;;5112123;27;20037;-74
2022/01/04 09:11:45;;;;;;;25.58;7.35;;;;;;;;;;5100666;27;20046;-74
2022/01/04 09:14:25;;;;;;;18.90;7.38;;;;;;;;;;5130269;27;20019;-74
2022/01/04 09:19:36;;;;;;;33.58;9.80;;;;;;;;;;5126381;27;20493;-75
2022/01/04 09:22:04;;;;;;;58.00;9.00;;;;;;;;;;5091952;27;20031;-75
2022/01/04 09:24:30;;;;;;;24.63;10.23;;;;;;;;;;5127229;27;20019;-74
2022/01/04 09:26:57;;;;;;;17.48;7.75;;;;;;;;;;5126800;27;20016;-74
2022/01/04 09:29:23;;;;;;;19.77;6.80;;;;;;;;;;5125838;27;20392;-74
2022/01/04 09:31:50;;;;;;;20.40;6.72;;;;;;;;;;5127592;28;20094;-74
2022/01/04 09:34:17;;;;;;;22.20;6.78;;;;;;;;;;5127546;28;20034;-74
2022/01/04 09:36:44;;;;;;;15.90;6.10;;;;;;;;;;5127664;28;20023;-74
2022/01/04 09:39:12;;;;;;;12.55;5.72;;;;;;;;;;5126879;28;20447;-74
2022/01/04 09:41:40;;;;;;;12.57;5.68;;;;;;;;;;5129141;28;20401;-75
2022/01/04 09:44:06;;;;;;;16.73;5.35;;;;;;;;;;5129050;28;20027;-74
2022/01/04 09:46:34;;;;;;;12.52;5.20;;;;;;;;;;5123688;28;20051;-74
2022/01/04 09:49:00;;;;;;;12.27;5.93;;;;;;;;;;5129998;27;20038;-76
2022/01/04 09:51:27;;;;;;;98.35;26.52;;;;;;;;;;5127150;28;20031;-74
2022/01/04 09:53:54;;;;;;;55.70;16.95;;;;;;;;;;5126512;28;20024;-74
2022/01/04 09:56:20;;;;;;;42.55;20.60;;;;;;;;;;5130965;28;20023;-75
2022/01/04 09:58:47;;;;;;;20.83;9.27;;;;;;;;;;5126866;28;20019;-74
2022/01/04 10:01:24;;;;;;;16.70;7.75;;;;;;;;;;5126527;28;20032;-74
2022/01/04 10:03:50;;;;;;;33.75;9.90;;;;;;;;;;5126834;27;20032;-74
2022/01/04 10:06:17;;;;;;;21.90;8.55;;;;;;;;;;5130218;27;20481;-75
2022/01/04 10:08:55;;;;;;;27.45;10.52;;;;;;;;;;5131479;27;20489;-74
2022/01/04 10:11:44;;;;;;;21.63;8.98;;;;;;;;;;5129425;27;20083;-74
2022/01/04 10:14:28;;;;;;;26.17;9.68;;;;;;;;;;5133176;27;20027;-74
2022/01/04 10:17:02;;;;;;;25.13;10.73;;;;;;;;;;5133357;27;20035;-74
2022/01/04 10:19:33;;;;;;;28.77;10.52;;;;;;;;;;5112326;27;20031;-75
2022/01/04 10:22:18;;;;;;;36.22;11.73;;;;;;;;;;5130758;27;20084;-74
2022/01/04 10:24:46;;;;;;;20.15;10.75;;;;;;;;;;5130422;27;20513;-74
2022/01/04 10:27:21;;;;;;;24.90;10.10;;;;;;;;;;5126691;27;20015;-74
2022/01/04 10:29:48;;;;;;;19.73;12.23;;;;;;;;;;5131342;27;20016;-74
2022/01/04 10:32:17;;;;;;;35.55;16.10;;;;;;;;;;5133205;27;20031;-74
2022/01/04 10:34:47;;;;;;;35.85;13.70;;;;;;;;;;5130744;27;20565;-74
2022/01/04 10:37:32;;;;;;;35.78;10.77;;;;;;;;;;5128826;27;20027;-75
2022/01/04 10:40:03;;;;;;;41.30;8.65;;;;;;;;;;5129506;27;20022;-74
2022/01/04 10:42:29;;;;;;;29.38;7.85;;;;;;;;;;5130032;27;20020;-75
2022/01/04 10:44:55;;;;;;;64.80;9.65;;;;;;;;;;5129559;27;20027;-75
2022/01/04 10:47:26;;;;;;;28.88;7.65;;;;;;;;;;5124964;27;20057;-75
2022/01/04 10:49:52;;;;;;;9.35;5.43;;;;;;;;;;5131040;27;20041;-73
2022/01/04 10:52:22;;;;;;;8.63;5.13;;;;;;;;;;5128985;27;20030;-74
2022/01/04 10:55:07;;;;;;;9.43;6.30;;;;;;;;;;5130049;27;20478;-74
2022/01/04 10:57:36;;;;;;;13.93;7.65;;;;;;;;;;5129637;27;20109;-74
2022/01/04 11:00:16;;;;;;;8.77;5.53;;;;;;;;;;5129380;27;20016;-74
2022/01/04 11:02:43;;;;;;;10.98;5.72;;;;;;;;;;5131570;27;20412;-74
2022/01/04 11:05:13;;;;;;;9.82;5.78;;;;;;;;;;5114028;27;20076;-74
2022/01/04 11:07:59;;;;;;;7.53;5.13;;;;;;;;;;5111782;27;20235;-74
2022/01/04 11:10:27;;;;;;;8.88;5.63;;;;;;;;;;5133785;27;20041;-73
2022/01/04 11:12:55;;;;;;;13.50;5.63;;;;;;;;;;5137658;27;20023;-75
2022/01/04 11:15:22;;;;;;;8.32;5.25;;;;;;;;;;5129551;27;20750;-74
2022/01/04 11:17:48;;;;;;;10.75;6.43;;;;;;;;;;5130298;27;20024;-74
2022/01/04 11:20:14;;;;;;;10.20;6.32;;;;;;;;;;5130175;27;20770;-75
2022/01/04 11:22:44;;;;;;;8.35;5.82;;;;;;;;;;5129068;27;20031;-74
2022/01/04 11:25:11;;;;;;;9.30;5.80;;;;;;;;;;5130772;27;20044;-74
2022/01/04 11:27:39;;;;;;;9.10;6.32;;;;;;;;;;5128879;27;20029;-74
2022/01/04 11:30:10;;;;;;;11.02;6.28;;;;;;;;;;5127921;27;20027;-74
2022/01/04 11:32:37;;;;;;;;;;;;;;;;;;5132361;27;20031;-74
2022/01/04 11:35:22;;;;;;;11.52;6.20;;;;;;;;;;5129116;27;20267;-74
2022/01/04 11:37:53;;;;;;;8.07;5.20;;;;;;;;;;5128768;27;20034;-75
2022/01/04 11:40:25;;;;;;;9.37;4.57;;;;;;;;;;5128758;27;20023;-74
2022/01/04 11:42:51;;;;;;;6.10;4.60;;;;;;;;;;5129147;27;20486;-74
2022/01/04 11:45:37;;;;;;;11.90;5.65;;;;;;;;;;5111128;27;20037;-74
2022/01/04 11:48:03;;;;;;;8.82;6.03;;;;;;;;;;5117092;27;20503;-74
2022/01/04 11:50:36;;;;;;;10.20;5.70;;;;;;;;;;5131106;27;20031;-74
2022/01/04 11:53:09;;;;;;;9.43;6.10;;;;;;;;;;5132831;27;20072;-74
2022/01/04 11:55:38;;;;;;;10.23;6.35;;;;;;;;;;5113928;27;20019;-74
2022/01/04 11:58:08;;;;;;;9.77;5.38;;;;;;;;;;5128985;27;20031;-74
2022/01/04 12:00:37;;;;;;;6.50;5.07;;;;;;;;;;5128660;27;20027;-74
2022/01/04 12:03:11;;;;;;;9.82;5.80;;;;;;;;;;5111024;27;20039;-74
2022/01/04 12:05:39;;;;;;;7.50;5.95;;;;;;;;;;5130183;27;20034;-77
2022/01/04 12:08:19;;;;;;;6.32;5.63;;;;;;;;;;5130187;27;20029;-74
2022/01/04 12:10:46;;;;;;;8.77;6.38;;;;;;;;;;5129045;27;20039;-73
2022/01/04 12:13:14;;;;;;;12.07;5.90;;;;;;;;;;5129188;27;20090;-73
2022/01/04 12:15:40;;;;;;;7.13;5.50;;;;;;;;;;5125428;27;20020;-73
2022/01/04 12:18:30;;;;;;;6.93;5.25;;;;;;;;;;5128929;27;20068;-73
2022/01/04 12:20:57;;;;;;;6.32;4.82;;;;;;;;;;5112763;27;20023;-73
2022/01/04 12:23:27;;;;;;;7.93;5.75;;;;;;;;;;5132258;27;20030;-73
2022/01/04 12:26:06;;;;;;;9.98;6.82;;;;;;;;;;5129794;27;20035;-74
2022/01/04 12:28:35;;;;;;;11.73;7.72;;;;;;;;;;5128015;27;20027;-71
2022/01/04 12:31:15;;;;;;;10.45;6.70;;;;;;;;;;5128213;27;20025;-73
2022/01/04 12:33:43;;;;;;;10.73;6.67;;;;;;;;;;5127299;27;20029;-73
2022/01/04 12:36:10;;;;;;;9.85;8.20;;;;;;;;;;5127305;27;20054;-74
2022/01/04 12:38:36;;;;;;;12.48;8.65;;;;;;;;;;5130440;27;20034;-74
2022/01/04 12:41:04;;;;;;;12.10;8.10;;;;;;;;;;5129839;27;20504;-74
2022/01/04 12:43:32;;;;;;;10.50;8.07;;;;;;;;;;5128100;27;20031;-73
2022/01/04 12:45:59;;;;;;;15.00;9.45;;;;;;;;;;5125755;27;20049;-73
2022/01/04 12:48:48;;;;;;;14.15;7.32;;;;;;;;;;5128546;27;20049;-72
2022/01/04 12:51:27;;;;;;;9.88;7.50;;;;;;;;;;5115149;27;20035;-73
2022/01/04 12:53:54;;;;;;;12.10;8.25;;;;;;;;;;5112481;27;20015;-73
2022/01/04 12:56:21;;;;;;;13.50;8.82;;;;;;;;;;5127680;27;20027;-73
2022/01/04 12:58:47;;;;;;;10.57;8.50;;;;;;;;;;5127768;27;20035;-73
2022/01/04 13:01:14;;;;;;;9.88;7.32;;;;;;;;;;5127460;27;20031;-74
2022/01/04 13:03:40;;;;;;;8.73;7.60;;;;;;;;;;5127624;27;20023;-73
2022/01/04 13:06:07;;;;;;;9.60;7.78;;;;;;;;;;5110895;27;20485;-73
2022/01/04 13:08:35;;;;;;;9.18;7.38;;;;;;;;;;5130278;27;20358;-73
2022/01/04 13:11:02;;;;;;;11.52;7.50;;;;;;;;;;5118872;27;20513;-73
2022/01/04 13:13:30;;;;;;;16.85;8.65;;;;;;;;;;5125312;27;20023;-71
2022/01/04 13:16:15;;;;;;;10.52;8.70;;;;;;;;;;5128002;27;20023;-73
2022/01/04 13:18:41;;;;;;;11.52;8.95;;;;;;;;;;5127589;27;20019;-74
2022/01/04 13:21:08;;;;;;;14.73;9.85;;;;;;;;;;5129419;27;20023;-73
2022/01/04 13:23:38;;;;;;;12.23;9.57;;;;;;;;;;5129916;27;20492;-74
2022/01/04 13:26:04;;;;;;;15.50;9.18;;;;;;;;;;5128135;27;20488;-73
2022/01/04 13:28:33;;;;;;;12.27;9.20;;;;;;;;;;5127325;27;20027;-74
2022/01/04 13:30:59;;;;;;;12.15;9.77;;;;;;;;;;5125311;27;20031;-74
2022/01/04 13:33:26;;;;;;;14.35;10.10;;;;;;;;;;5127259;28;20430;-73
2022/01/04 13:35:53;;;;;;;13.38;9.95;;;;;;;;;;5123072;28;20029;-73
2022/01/04 13:38:23;;;;;;;13.63;9.75;;;;;;;;;;5113491;27;20019;-73
2022/01/04 13:40:55;;;;;;;18.75;9.65;;;;;;;;;;5133197;27;20019;-73
2022/01/04 13:43:33;;;;;;;11.52;9.00;;;;;;;;;;5131820;27;20020;-74
2022/01/04 13:46:00;;;;;;;17.60;9.05;;;;;;;;;;5131037;27;20131;-74
2022/01/04 13:48:28;;;;;;;12.68;9.35;;;;;;;;;;5134915;27;20504;-74
2022/01/04 13:51:02;;;;;;;14.75;9.25;;;;;;;;;;5131768;27;20046;-74
2022/01/04 13:53:34;;;;;;;11.80;9.15;;;;;;;;;;5119568;27;20012;-73
2022/01/04 13:56:01;;;;;;;15.10;9.48;;;;;;;;;;5134083;27;20023;-73
2022/01/04 13:58:37;;;;;;;14.32;9.73;;;;;;;;;;5129802;27;20063;-73
2022/01/04 14:01:10;;;;;;;15.40;10.27;;;;;;;;;;5132608;27;20039;-74
2022/01/04 14:03:36;;;;;;;15.18;10.75;;;;;;;;;;5131318;27;20075;-74
2022/01/04 14:06:03;;;;;;;17.02;10.15;;;;;;;;;;5113589;27;20039;-73
2022/01/04 14:08:48;;;;;;;20.42;11.48;;;;;;;;;;5116104;27;20018;-74
2022/01/04 14:11:29;;;;;;;19.02;13.85;;;;;;;;;;5116143;27;20033;-74
2022/01/04 14:13:55;;;;;;;21.02;12.82;;;;;;;;;;5132148;27;20054;-74
2022/01/04 14:16:23;;;;;;;21.73;12.40;;;;;;;;;;5130824;27;20041;-73
2022/01/04 14:19:12;;;;;;;29.98;13.77;;;;;;;;;;5130987;27;20023;-74
2022/01/04 14:21:42;;;;;;;18.33;11.90;;;;;;;;;;5129736;27;20031;-73
2022/01/04 14:24:27;;;;;;;17.92;12.45;;;;;;;;;;5131327;27;20034;-74
2022/01/04 14:26:54;;;;;;;17.40;12.50;;;;;;;;;;5115233;27;20400;-75
2022/01/04 14:29:46;;;;;;;47.40;23.73;;;;;;;;;;5129984;27;20027;-74
2022/01/04 14:32:12;;;;;;;19.40;11.77;;;;;;;;;;5111693;27;20096;-73
2022/01/04 14:34:39;;;;;;;18.17;12.07;;;;;;;;;;5129583;27;20041;-74
2022/01/04 14:37:06;;;;;;;17.08;11.80;;;;;;;;;;5111858;27;20023;-73
2022/01/04 14:39:32;;;;;;;27.13;12.90;;;;;;;;;;5131194;27;20035;-74
2022/01/04 14:42:00;;;;;;;21.27;12.82;;;;;;;;;;5131095;27;20037;-74
2022/01/04 14:44:26;;;;;;;18.58;13.27;;;;;;;;;;5128567;27;20030;-74